Flight Track Log - Related Links

Times and Time Zones

All times are in EDT time to prevent confusion due to time zone crossing. See the FLG3617 flight status page for this flight to view local times or setup timezone preferences in your user account.

Time Position Orientation Groundspeed Altitude Reporting Facility
EDT Latitude Longitude Course Direction KTS MPH feet Rate Location/Type
Thu 02:00:12 PM 42.1994 -83.3608 North 160 184 1,300  Level Cleveland Center
Thu 02:00:48 PM 42.1986 -83.3972 268° West 181 208 2,600 1,670 Climbing Cleveland Center
Thu 02:01:49 PM 42.2092 -83.4764 280° West 242 278 4,000 683 Climbing Cleveland Center
Thu 02:02:51 PM 42.2636 -83.5433 318° Northwest 269 310 4,000  Level Cleveland Center
Thu 02:03:00 PM 42.5257 -83.3500 North  Level FlightAware Approximate
Thu 02:03:52 PM 42.3358 -83.5719 344° North 269 310 4,000  Level Cleveland Center
Thu 02:04:00 PM 42.6071 -83.3500 North  Level FlightAware Approximate
Thu 02:04:53 PM 42.4072 -83.5500 13° North 266 306 4,000  Level Cleveland Center
Thu 02:05:00 PM 42.6885 -83.3500 North  Level FlightAware Approximate
Thu 02:06:00 PM 42.4894 -83.5228 341° North 276 318 4,000  Level Cleveland Center
Thu 02:06:00 PM 42.4890 -83.5878 341° North  Level Estimated
Thu 02:07:01 PM 42.5631 -83.4953 15° North 276 318 4,000  Level Cleveland Center
Thu 02:08:03 PM 42.6431 -83.4650 16° North 282 325 5,000 968 Climbing Cleveland Center
Thu 02:10:00 PM 42.7854 -83.3970 19° North  Level FlightAware Approximate
Thu 02:17:00 PM 43.2456 -83.6350 312° West  Level FlightAware Approximate
Thu 02:18:00 PM 43.2979 -83.7134 313° West  Level FlightAware Approximate
Thu 02:19:00 PM 43.3474 -83.7948 305° West  Level FlightAware Approximate
Thu 02:20:00 PM 43.4012 -83.8691 305° West  Level FlightAware Approximate
Thu 02:21:00 PM 43.4465 -83.9553 310° West  Level FlightAware Approximate
Thu 02:22:00 PM 43.4966 -84.0365 313° West  Level FlightAware Approximate
Thu 02:23:00 PM 43.5167 -84.0667 313° West  Level FlightAware Approximate
Thu 02:24:00 PM 43.5329 -84.0796 313° West  Level Estimated

Login

Don't have an account? Register now (free) for customized features, flight alerts, and more!